Time;durP1;ratioP1;P1;durP2;ratioP2;P2;SDS_P1;SDS_P2;PMS_P1;PMS_P2;Temp;Humidity;BMP_temperature;BMP_pressure;BME280_temperature;BME280_humidity;BME280_pressure;Samples;Min_cycle;Max_cycle;Signal;HPM_P1;HPM_P2
2023/02/14 00:01:30;;;;;;;;;;;;;;;12.78;nan;103750.19;4962295;28;19964;-84
2023/02/14 00:03:59;;;;;;;;;;;;;;;12.77;nan;103751.22;4962392;28;19964;-84
2023/02/14 00:06:25;;;;;;;;;;;;;;;12.79;nan;103757.25;4965489;28;20059;-84
2023/02/14 00:08:52;;;;;;;;;;;;;;;12.77;nan;103753.09;4960960;28;19927;-84
2023/02/14 00:11:18;;;;;;;;;;;;;;;12.75;nan;103753.28;4961459;28;20055;-84
2023/02/14 00:15:20;;;;;;;;;;;;;;;12.75;nan;103758.66;4965038;28;20598;-84
2023/02/14 00:16:29;;;;;;;;;;;;;;;12.74;nan;103754.25;4962497;28;19930;-84
2023/02/14 00:19:03;;;;;;;;;;;;;;;12.76;nan;103757.63;4964255;28;19944;-84
2023/02/14 00:21:29;;;;;;;;;;;;;;;12.78;nan;103754.75;4962113;28;20598;-84
2023/02/14 00:23:55;;;;;;;;;;;;;;;12.79;nan;103761.78;4960568;28;20307;-84
2023/02/14 00:26:20;;;;;;;;;;;;;;;12.80;nan;103761.59;4963334;28;19921;-84
2023/02/14 00:28:45;;;;;;;;;;;;;;;12.78;nan;103766.34;4961334;28;19921;-84
2023/02/14 00:31:11;;;;;;;;;;;;;;;12.76;nan;103763.00;4961269;28;20024;-84
2023/02/14 00:33:36;;;;;;;;;;;;;;;12.77;nan;103758.47;4963654;28;19932;-83
2023/02/14 00:36:03;;;;;;;;;;;;;;;12.78;nan;103760.13;4961443;28;20309;-84
2023/02/14 00:38:29;;;;;;;;;;;;;;;12.73;nan;103757.97;4961917;28;19930;-84
2023/02/14 00:40:54;;;;;;;;;;;;;;;12.71;nan;103762.72;4960819;28;19936;-83
2023/02/14 00:43:19;;;;;;;;;;;;;;;12.73;nan;103770.59;4961894;28;19928;-84
2023/02/14 00:45:45;;;;;;;;;;;;;;;12.73;nan;103766.06;4962751;28;20280;-84
2023/02/14 00:48:10;;;;;;;;;;;;;;;12.70;nan;103769.97;4960604;28;19972;-84
2023/02/14 00:50:35;;;;;;;;;;;;;;;12.68;nan;103772.00;4963877;28;20342;-84
2023/02/14 00:53:01;;;;;;;;;;;;;;;12.69;nan;103772.84;4962669;28;20044;-84
2023/02/14 00:55:26;;;;;;;;;;;;;;;12.67;nan;103770.34;4960599;28;20065;-84
2023/02/14 00:57:52;;;;;;;;;;;;;;;12.67;nan;103761.44;4962466;28;20020;-83
2023/02/14 01:00:17;;;;;;;;;;;;;;;12.68;nan;103761.25;4960304;28;19926;-84
2023/02/14 01:02:42;;;;;;;;;;;;;;;12.66;nan;103762.47;4961073;28;20378;-84
2023/02/14 01:05:08;;;;;;;;;;;;;;;12.64;nan;103759.97;4964451;28;20311;-84
2023/02/14 01:07:33;;;;;;;;;;;;;;;12.64;nan;103754.59;4959803;28;20924;-84
2023/02/14 01:09:58;;;;;;;;;;;;;;;12.66;nan;103757.09;4942827;28;19922;-84
2023/02/14 01:12:24;;;;;;;;;;;;;;;12.66;nan;103757.09;4964136;28;19924;-84
2023/02/14 01:14:49;;;;;;;;;;;;;;;12.64;nan;103762.66;4959950;28;19928;-84
2023/02/14 01:17:14;;;;;;;;;;;;;;;12.68;nan;103755.03;4960296;28;20629;-84
2023/02/14 01:19:41;;;;;;;;;;;;;;;12.66;nan;103757.91;4960839;28;20634;-84
2023/02/14 01:22:07;;;;;;;;;;;;;;;12.60;nan;103753.31;4958291;28;19925;-84
2023/02/14 01:24:32;;;;;;;;;;;;;;;12.61;nan;103746.06;4963133;28;19968;-84
2023/02/14 01:26:58;;;;;;;;;;;;;;;12.61;nan;103743.38;4943496;28;20019;-84
2023/02/14 01:29:23;;;;;;;;;;;;;;;12.57;nan;103747.47;4959418;28;19921;-84
2023/02/14 01:31:48;;;;;;;;;;;;;;;12.53;nan;103746.16;4963000;28;19936;-84
2023/02/14 01:34:14;;;;;;;;;;;;;;;12.52;nan;103739.09;4960892;28;20399;-84
2023/02/14 01:36:39;;;;;;;;;;;;;;;12.53;nan;103738.09;4960179;28;20676;-84
2023/02/14 01:39:11;;;;;;;;;;;;;;;12.54;nan;103737.91;4960457;28;20043;-84
2023/02/14 01:41:37;;;;;;;;;;;;;;;12.55;nan;103736.88;4957710;28;20403;-84
2023/02/14 01:44:15;;;;;;;;;;;;;;;12.61;nan;103740.69;4962386;28;20192;-84
2023/02/14 01:46:42;;;;;;;;;;;;;;;12.59;nan;103740.88;4958677;28;19926;-84
2023/02/14 01:49:17;;;;;;;;;;;;;;;12.61;nan;103738.81;4959120;28;20469;-84
2023/02/14 01:51:48;;;;;;;;;;;;;;;12.58;nan;103741.91;4962282;28;19972;-84
2023/02/14 01:54:16;;;;;;;;;;;;;;;12.59;nan;103740.88;4963102;28;20474;-84
2023/02/14 01:56:44;;;;;;;;;;;;;;;12.58;nan;103733.84;4962297;28;19940;-84
2023/02/14 01:59:11;;;;;;;;;;;;;;;12.58;nan;103736.53;4960601;28;19944;-84
2023/02/14 02:01:37;;;;;;;;;;;;;;;12.57;nan;103732.16;4959869;28;19922;-84
2023/02/14 02:04:08;;;;;;;;;;;;;;;12.56;nan;103725.09;4962421;28;20652;-83
2023/02/14 02:06:42;;;;;;;;;;;;;;;12.53;nan;103719.25;4961546;28;19918;-84
2023/02/14 02:09:16;;;;;;;;;;;;;;;12.54;nan;103723.63;4960572;28;19937;-84
2023/02/14 02:11:45;;;;;;;;;;;;;;;12.55;nan;103720.72;4961158;28;21246;-84
2023/02/14 02:14:15;;;;;;;;;;;;;;;12.55;nan;103718.03;4959537;28;19926;-84
2023/02/14 02:16:45;;;;;;;;;;;;;;;12.52;nan;103717.59;4961587;28;19951;-85
2023/02/14 02:19:29;;;;;;;;;;;;;;;12.51;nan;103730.22;4959272;28;20350;-84
2023/02/14 02:22:03;;;;;;;;;;;;;;;12.48;nan;103722.53;4961564;28;19925;-84
2023/02/14 02:24:38;;;;;;;;;;;;;;;12.49;nan;103715.28;4959115;28;19925;-84
2023/02/14 02:27:06;;;;;;;;;;;;;;;12.50;nan;103722.31;4965419;28;20631;-84
2023/02/14 02:29:39;;;;;;;;;;;;;;;12.52;nan;103720.28;4961174;28;20275;-84
2023/02/14 02:32:24;;;;;;;;;;;;;;;12.51;nan;103719.44;4958693;28;21461;-84
2023/02/14 02:34:55;;;;;;;;;;;;;;;12.53;nan;103721.94;4959308;28;20009;-83
2023/02/14 02:37:20;;;;;;;;;;;;;;;12.50;nan;103719.63;4958214;28;19973;-84
2023/02/14 02:39:48;;;;;;;;;;;;;;;12.50;nan;103722.31;4959055;28;20155;-84
2023/02/14 02:42:17;;;;;;;;;;;;;;;12.49;nan;103726.03;4961185;28;19940;-83
2023/02/14 02:45:01;;;;;;;;;;;;;;;12.51;nan;103715.94;4959411;28;19933;-83
2023/02/14 02:47:38;;;;;;;;;;;;;;;12.49;nan;103724.19;4959310;28;19926;-84
2023/02/14 02:53:02;;;;;;;;;;;;;;;12.44;nan;103723.94;4960749;28;20156;-84
2023/02/14 02:58:55;;;;;;;;;;;;;;;12.45;nan;103724.75;4904655;29;19942;-84
2023/02/14 03:01:22;;;;;;;;;;;;;;;12.46;nan;103726.44;4906045;29;19923;-83
2023/02/14 03:06:35;;;;;;;;;;;;;;;12.47;nan;103730.78;4961095;28;20016;-84
2023/02/14 03:09:10;;;;;;;;;;;;;;;12.49;nan;103734.13;4963810;28;20566;-84
2023/02/14 03:11:39;;;;;;;;;;;;;;;12.50;nan;103741.16;4962956;28;20028;-84
2023/02/14 03:14:10;;;;;;;;;;;;;;;12.43;nan;103742.94;4965487;28;19925;-84
2023/02/14 03:16:49;;;;;;;;;;;;;;;12.39;nan;103750.56;4963184;28;19922;-84
2023/02/14 03:22:19;;;;;;;;;;;;;;;12.38;nan;103741.63;4965837;28;19933;-84
2023/02/14 03:24:45;;;;;;;;;;;;;;;12.39;nan;103734.41;4960803;28;19945;-83
2023/02/14 03:27:10;;;;;;;;;;;;;;;12.38;nan;103738.94;4961939;28;20739;-84
2023/02/14 03:29:41;;;;;;;;;;;;;;;12.40;nan;103741.47;4966204;28;19933;-84
2023/02/14 03:32:14;;;;;;;;;;;;;;;12.37;nan;103741.81;4961416;28;19926;-84
2023/02/14 03:34:39;;;;;;;;;;;;;;;12.36;nan;103740.16;4963791;28;19949;-86
2023/02/14 03:37:10;;;;;;;;;;;;;;;12.36;nan;103745.53;4961060;28;19926;-84
2023/02/14 03:39:51;;;;;;;;;;;;;;;12.37;nan;103747.19;4963190;28;19925;-84
2023/02/14 03:42:20;;;;;;;;;;;;;;;12.36;nan;103750.91;4963816;28;20068;-84
2023/02/14 03:44:51;;;;;;;;;;;;;;;12.35;nan;103751.94;4960573;28;20332;-84
2023/02/14 03:47:18;;;;;;;;;;;;;;;12.34;nan;103758.31;4964514;28;19925;-84
2023/02/14 03:49:45;;;;;;;;;;;;;;;12.35;nan;103744.69;4961851;28;19918;-84
2023/02/14 03:52:11;;;;;;;;;;;;;;;12.34;nan;103748.41;4962119;28;20421;-84
2023/02/14 03:54:37;;;;;;;;;;;;;;;12.34;nan;103745.72;4957696;28;19926;-84
2023/02/14 03:57:18;;;;;;;;;;;;;;;12.34;nan;103742.19;4959247;28;20020;-84
2023/02/14 03:59:44;;;;;;;;;;;;;;;12.36;nan;103745.53;4953523;28;19926;-84
2023/02/14 04:02:12;;;;;;;;;;;;;;;12.35;nan;103733.94;4958397;28;20678;-84
2023/02/14 04:04:41;;;;;;;;;;;;;;;12.35;nan;103743.84;4953299;28;19929;-84
2023/02/14 04:07:08;;;;;;;;;;;;;;;12.33;nan;103745.91;4954780;28;21229;-84
2023/02/14 04:09:34;;;;;;;;;;;;;;;12.33;nan;103740.53;4955082;28;19987;-84
2023/02/14 04:11:59;;;;;;;;;;;;;;;12.31;nan;103745.25;4953843;28;19922;-84
2023/02/14 04:14:28;;;;;;;;;;;;;;;12.31;nan;103748.78;4954744;28;20411;-83
2023/02/14 04:19:37;;;;;;;;;;;;;;;12.30;nan;103738.22;4960866;28;20375;-84
2023/02/14 04:22:03;;;;;;;;;;;;;;;12.28;nan;103738.41;4963560;28;19925;-84
2023/02/14 04:24:28;;;;;;;;;;;;;;;12.31;nan;103731.81;4961666;28;20343;-84
2023/02/14 04:27:09;;;;;;;;;;;;;;;12.30;nan;103733.69;4964532;28;20442;-84
2023/02/14 04:29:39;;;;;;;;;;;;;;;12.27;nan;103736.75;4943325;28;19925;-84
2023/02/14 04:32:05;;;;;;;;;;;;;;;12.27;nan;103734.06;4959251;28;19925;-84
2023/02/14 04:34:30;;;;;;;;;;;;;;;12.24;nan;103730.91;4963458;28;19969;-84
2023/02/14 04:36:56;;;;;;;;;;;;;;;12.21;nan;103732.13;4960069;28;19926;-84
2023/02/14 04:39:21;;;;;;;;;;;;;;;12.19;nan;103728.75;4960755;28;19931;-84
2023/02/14 04:41:47;;;;;;;;;;;;;;;12.13;nan;103734.06;4964530;28;20294;-83
2023/02/14 04:44:12;;;;;;;;;;;;;;;12.10;nan;103727.19;4960965;28;20370;-84
2023/02/14 04:46:37;;;;;;;;;;;;;;;12.07;nan;103731.09;4962084;28;21125;-84
2023/02/14 04:49:03;;;;;;;;;;;;;;;12.06;nan;103728.59;4959914;28;20203;-84
2023/02/14 04:51:28;;;;;;;;;;;;;;;12.06;nan;103726.75;4959748;28;19933;-83
2023/02/14 04:53:53;;;;;;;;;;;;;;;12.06;nan;103729.44;4962156;28;20010;-84
2023/02/14 04:56:19;;;;;;;;;;;;;;;12.08;nan;103726.56;4961290;28;20307;-84
2023/02/14 04:58:44;;;;;;;;;;;;;;;12.07;nan;103730.25;4961633;28;20839;-84
2023/02/14 05:01:09;;;;;;;;;;;;;;;12.05;nan;103730.44;4963824;28;19922;-84
2023/02/14 05:03:35;;;;;;;;;;;;;;;12.07;nan;103730.25;4961323;28;20323;-84
2023/02/14 05:06:00;;;;;;;;;;;;;;;12.08;nan;103731.94;4963702;28;19932;-84
2023/02/14 05:08:26;;;;;;;;;;;;;;;12.10;nan;103733.41;4961946;28;20016;-83
2023/02/14 05:10:51;;;;;;;;;;;;;;;12.14;nan;103735.72;4960960;28;19926;-84
2023/02/14 05:13:16;;;;;;;;;;;;;;;12.13;nan;103734.88;4962501;28;20038;-84
2023/02/14 05:15:43;;;;;;;;;;;;;;;12.13;nan;103732.19;4960562;28;19933;-84
2023/02/14 05:18:08;;;;;;;;;;;;;;;12.13;nan;103726.81;4960021;28;19925;-83
2023/02/14 05:20:34;;;;;;;;;;;;;;;12.16;nan;103717.53;4961613;28;19956;-84
2023/02/14 05:23:02;;;;;;;;;;;;;;;12.15;nan;103727.47;4959163;28;19926;-84
2023/02/14 05:25:27;;;;;;;;;;;;;;;12.16;nan;103718.38;4962374;28;19925;-84
2023/02/14 05:27:53;;;;;;;;;;;;;;;12.18;nan;103715.50;4962154;28;19972;-83
2023/02/14 05:30:21;;;;;;;;;;;;;;;12.17;nan;103719.22;4958391;28;19926;-84
2023/02/14 05:32:46;;;;;;;;;;;;;;;12.14;nan;103709.69;4962919;28;19925;-83
2023/02/14 05:35:11;;;;;;;;;;;;;;;12.15;nan;103716.72;4960208;28;19925;-84
2023/02/14 05:37:37;;;;;;;;;;;;;;;12.16;nan;103722.91;4959381;28;19930;-83
2023/02/14 05:40:02;;;;;;;;;;;;;;;12.09;nan;103712.09;4962078;28;20945;-83
2023/02/14 05:42:27;;;;;;;;;;;;;;;12.04;nan;103718.03;4961825;28;19929;-84
2023/02/14 05:44:53;;;;;;;;;;;;;;;12.07;nan;103719.50;4956318;28;19926;-84
2023/02/14 05:47:18;;;;;;;;;;;;;;;12.10;nan;103719.13;4963193;28;20140;-84
2023/02/14 05:49:44;;;;;;;;;;;;;;;12.10;nan;103714.59;4958193;28;20059;-84
2023/02/14 05:52:09;;;;;;;;;;;;;;;12.09;nan;103712.94;4964114;28;20003;-83
2023/02/14 05:54:35;;;;;;;;;;;;;;;12.07;nan;103723.03;4959655;28;20024;-84
2023/02/14 05:57:00;;;;;;;;;;;;;;;12.06;nan;103723.22;4957984;28;20025;-84
2023/02/14 05:59:26;;;;;;;;;;;;;;;12.01;nan;103721.06;4961075;28;19948;-84
2023/02/14 06:01:51;;;;;;;;;;;;;;;11.99;nan;103724.97;4959197;28;19926;-84
2023/02/14 06:04:16;;;;;;;;;;;;;;;11.96;nan;103722.66;4958056;28;20302;-83
2023/02/14 06:06:42;;;;;;;;;;;;;;;11.96;nan;103728.84;4960243;28;20209;-83
2023/02/14 06:09:07;;;;;;;;;;;;;;;12.00;nan;103729.31;4958333;28;20033;-84
2023/02/14 06:11:32;;;;;;;;;;;;;;;12.03;nan;103737.03;4960439;28;19932;-84
2023/02/14 06:13:58;;;;;;;;;;;;;;;12.06;nan;103733.97;4960302;28;19940;-83
2023/02/14 06:16:23;;;;;;;;;;;;;;;12.07;nan;103731.09;4958900;28;20442;-84
2023/02/14 06:18:48;;;;;;;;;;;;;;;12.09;nan;103738.97;4963054;28;20315;-84
2023/02/14 06:21:14;;;;;;;;;;;;;;;12.10;nan;103751.38;4961006;28;19922;-83
2023/02/14 06:23:39;;;;;;;;;;;;;;;12.07;nan;103747.22;4959794;28;19918;-84
2023/02/14 06:26:05;;;;;;;;;;;;;;;12.06;nan;103736.66;4961147;28;19921;-83
2023/02/14 06:28:30;;;;;;;;;;;;;;;12.04;nan;103741.38;4964155;28;20707;-83
2023/02/14 06:30:55;;;;;;;;;;;;;;;12.04;nan;103746.75;4961726;28;19976;-83
2023/02/14 06:33:21;;;;;;;;;;;;;;;12.05;nan;103753.81;4967419;28;21343;-84
2023/02/14 06:35:46;;;;;;;;;;;;;;;12.05;nan;103745.75;4961694;28;20016;-84
2023/02/14 06:38:11;;;;;;;;;;;;;;;12.07;nan;103749.06;4963204;28;19957;-84
2023/02/14 06:40:37;;;;;;;;;;;;;;;12.09;nan;103749.72;4966941;28;21143;-84
2023/02/14 06:43:02;;;;;;;;;;;;;;;12.06;nan;103745.56;4964973;28;19960;-84
2023/02/14 06:45:27;;;;;;;;;;;;;;;12.01;nan;103742.56;4965761;28;19933;-84
2023/02/14 06:47:53;;;;;;;;;;;;;;;11.98;nan;103745.63;4962295;28;21410;-84
2023/02/14 06:50:18;;;;;;;;;;;;;;;11.96;nan;103744.97;4963343;28;19933;-84
2023/02/14 06:52:43;;;;;;;;;;;;;;;12.00;nan;103746.28;4970172;28;19981;-84
2023/02/14 06:55:11;;;;;;;;;;;;;;;12.02;nan;103738.84;4963962;28;20430;-84
2023/02/14 06:57:36;;;;;;;;;;;;;;;12.03;nan;103742.41;4964139;28;20009;-84
2023/02/14 07:00:02;;;;;;;;;;;;;;;12.05;nan;103740.38;4949486;28;20006;-84
2023/02/14 07:02:27;;;;;;;;;;;;;;;12.10;nan;103735.25;4965591;28;19929;-84
2023/02/14 07:04:52;;;;;;;;;;;;;;;12.12;nan;103732.38;4965175;28;19922;-84
2023/02/14 07:07:18;;;;;;;;;;;;;;;12.14;nan;103735.72;4945363;28;19926;-84
2023/02/14 07:09:43;;;;;;;;;;;;;;;12.16;nan;103736.38;4963620;28;19926;-84
2023/02/14 07:12:08;;;;;;;;;;;;;;;12.16;nan;103739.88;4966263;28;20393;-84
2023/02/14 07:14:34;;;;;;;;;;;;;;;12.17;nan;103740.72;4965107;28;19926;-84
2023/02/14 07:16:59;;;;;;;;;;;;;;;12.19;nan;103739.50;4964311;28;19929;-84
2023/02/14 07:19:25;;;;;;;;;;;;;;;12.22;nan;103744.53;4965633;28;19993;-84
2023/02/14 07:21:50;;;;;;;;;;;;;;;12.21;nan;103734.81;4962882;28;19925;-84
2023/02/14 07:24:15;;;;;;;;;;;;;;;12.22;nan;103741.00;4964026;28;20060;-84
2023/02/14 07:26:41;;;;;;;;;;;;;;;12.24;nan;103745.19;4967170;28;21050;-84
2023/02/14 07:29:06;;;;;;;;;;;;;;;12.27;nan;103752.03;4962631;28;20534;-84
2023/02/14 07:31:31;;;;;;;;;;;;;;;12.27;nan;103752.88;4967936;28;20025;-84
2023/02/14 07:33:59;;;;;;;;;;;;;;;12.27;nan;103752.03;4963610;28;19926;-84
2023/02/14 07:36:25;;;;;;;;;;;;;;;12.30;nan;103752.50;4963721;28;19973;-84
2023/02/14 07:38:50;;;;;;;;;;;;;;;12.32;nan;103758.50;4965217;28;19975;-84
2023/02/14 07:41:15;;;;;;;;;;;;;;;12.34;nan;103747.56;4963989;28;20763;-84
2023/02/14 07:43:41;;;;;;;;;;;;;;;12.34;nan;103753.78;4963745;28;19922;-84
2023/02/14 07:46:07;;;;;;;;;;;;;;;12.35;nan;103763.50;4965978;28;21098;-84
2023/02/14 07:48:32;;;;;;;;;;;;;;;12.38;nan;103759.63;4960291;28;19977;-84
2023/02/14 07:50:58;;;;;;;;;;;;;;;12.40;nan;103763.81;4964619;28;19925;-84
2023/02/14 07:53:24;;;;;;;;;;;;;;;12.43;nan;103767.16;4965178;28;20295;-84
2023/02/14 07:55:50;;;;;;;;;;;;;;;12.46;nan;103751.47;4962371;28;19956;-84
2023/02/14 07:58:15;;;;;;;;;;;;;;;12.48;nan;103748.59;4961356;28;19977;-84
2023/02/14 08:00:41;;;;;;;;;;;;;;;12.51;nan;103761.66;4965918;28;20396;-84
2023/02/14 08:03:06;;;;;;;;;;;;;;;12.52;nan;103756.06;4961293;28;19933;-84
2023/02/14 08:05:31;;;;;;;;;;;;;;;12.53;nan;103751.53;4965065;28;20035;-84
2023/02/14 08:07:57;;;;;;;;;;;;;;;12.55;nan;103754.88;4962232;28;20031;-84
2023/02/14 08:10:22;;;;;;;;;;;;;;;12.57;nan;103752.84;4964186;28;20008;-84
2023/02/14 08:13:00;;;;;;;;;;;;;;;12.59;nan;103761.56;4965407;28;19980;-84
2023/02/14 08:18:13;;;;;;;;;;;;;;;12.62;nan;103770.09;4964966;28;20024;-84
2023/02/14 08:20:38;;;;;;;;;;;;;;;12.65;nan;103771.56;4961010;28;20007;-84
2023/02/14 08:23:04;;;;;;;;;;;;;;;12.67;nan;103772.19;4963945;28;20351;-84
2023/02/14 08:25:29;;;;;;;;;;;;;;;12.70;nan;103779.88;4964105;28;19932;-84
2023/02/14 08:27:55;;;;;;;;;;;;;;;12.72;nan;103783.22;4964432;28;19925;-84
2023/02/14 08:30:20;;;;;;;;;;;;;;;12.75;nan;103782.00;4965055;28;20271;-84
2023/02/14 08:32:46;;;;;;;;;;;;;;;12.76;nan;103781.84;4963632;28;19926;-84
2023/02/14 08:35:12;;;;;;;;;;;;;;;12.78;nan;103782.50;4963704;28;19922;-84
2023/02/14 08:37:37;;;;;;;;;;;;;;;12.77;nan;103775.44;4964389;28;19937;-84
2023/02/14 08:40:03;;;;;;;;;;;;;;;12.80;nan;103785.81;4966041;28;20176;-84
2023/02/14 08:42:28;;;;;;;;;;;;;;;12.82;nan;103788.31;4962393;28;19925;-84
2023/02/14 08:44:54;;;;;;;;;;;;;;;12.84;nan;103786.28;4966002;28;19925;-84
2023/02/14 08:47:19;;;;;;;;;;;;;;;12.86;nan;103785.06;4962585;28;19925;-84
2023/02/14 08:49:44;;;;;;;;;;;;;;;12.89;nan;103783.84;4961127;28;19926;-84
2023/02/14 08:52:10;;;;;;;;;;;;;;;12.93;nan;103793.22;4965060;28;20012;-84
2023/02/14 08:54:36;;;;;;;;;;;;;;;12.94;nan;103787.66;4959022;28;19926;-84
2023/02/14 08:57:02;;;;;;;;;;;;;;;12.98;nan;103791.63;4963974;28;20382;-84
2023/02/14 08:59:27;;;;;;;;;;;;;;;13.04;nan;103794.56;4966960;28;19995;-84
2023/02/14 09:01:53;;;;;;;;;;;;;;;13.04;nan;103799.94;4962481;28;20369;-85
2023/02/14 09:04:18;;;;;;;;;;;;;;;13.06;nan;103800.59;4967626;28;20310;-84
2023/02/14 09:06:44;;;;;;;;;;;;;;;13.08;nan;103798.53;4963177;28;19925;-84
2023/02/14 09:09:09;;;;;;;;;;;;;;;13.11;nan;103800.88;4960809;28;20060;-84
2023/02/14 09:11:35;;;;;;;;;;;;;;;13.13;nan;103802.34;4961217;28;20643;-86
2023/02/14 09:14:00;;;;;;;;;;;;;;;13.14;nan;103797.78;4956017;28;19928;-84
2023/02/14 09:16:25;;;;;;;;;;;;;;;13.18;nan;103799.09;4958123;28;20296;-85
2023/02/14 09:18:51;;;;;;;;;;;;;;;13.19;nan;103800.78;4958739;28;19984;-84
2023/02/14 09:21:18;;;;;;;;;;;;;;;13.20;nan;103799.75;4960544;28;19925;-84
2023/02/14 09:23:43;;;;;;;;;;;;;;;13.23;nan;103810.97;4960881;28;19925;-84
2023/02/14 09:26:10;;;;;;;;;;;;;;;13.26;nan;103809.75;4963386;28;20402;-84
2023/02/14 09:28:36;;;;;;;;;;;;;;;13.31;nan;103807.31;4960692;28;19928;-84
2023/02/14 09:31:12;;;;;;;;;;;;;;;13.35;nan;103811.28;4960491;28;19918;-84
2023/02/14 09:33:38;;;;;;;;;;;;;;;13.38;nan;103808.22;4962379;28;19922;-84
2023/02/14 09:36:12;;;;;;;;;;;;;;;13.35;nan;103805.91;4962400;28;20412;-85
2023/02/14 09:38:38;;;;;;;;;;;;;;;13.24;nan;103798.34;4977811;23;20222;-84
2023/02/14 09:41:07;;;;;;;;;;;;;;;13.18;nan;103808.00;4956271;28;20504;-84
2023/02/14 09:43:50;;;;;;;;;;;;;;;13.17;nan;103808.19;4962099;28;19971;-84
2023/02/14 09:46:17;;;;;;;;;;;;;;;13.18;nan;103809.88;4957036;28;20391;-83
2023/02/14 09:48:45;;;;;;;;;;;;;;;13.18;nan;103808.00;4955948;28;20012;-84
2023/02/14 09:51:22;;;;;;;;;;;;;;;13.15;nan;103811.06;4961088;28;19926;-84
2023/02/14 09:53:53;;;;;;;;;;;;;;;13.12;nan;103810.63;4959324;28;19925;-83
2023/02/14 09:56:18;;;;;;;;;;;;;;;13.07;nan;103803.09;4961205;28;20326;-84
2023/02/14 09:58:49;;;;;;;;;;;;;;;13.05;nan;103810.53;4958459;28;19933;-84
2023/02/14 10:01:14;;;;;;;;;;;;;;;13.09;nan;103808.28;4957942;28;20394;-84
2023/02/14 10:03:52;;;;;;;;;;;;;;;13.13;nan;103809.59;4956113;28;20231;-84
2023/02/14 10:06:30;;;;;;;;;;;;;;;13.15;nan;103808.38;4959614;28;19960;-84
2023/02/14 10:09:10;;;;;;;;;;;;;;;13.22;nan;103805.78;4961371;28;20004;-84
2023/02/14 10:11:36;;;;;;;;;;;;;;;13.26;nan;103797.09;4957595;28;19921;-84
2023/02/14 10:14:09;;;;;;;;;;;;;;;13.33;nan;103791.81;4959694;28;19932;-83
2023/02/14 10:16:39;;;;;;;;;;;;;;;13.40;nan;103795.38;4958136;28;20072;-85
2023/02/14 10:19:13;;;;;;;;;;;;;;;13.45;nan;103790.25;4957762;28;20549;-84
2023/02/14 10:21:43;;;;;;;;;;;;;;;13.43;nan;103789.59;4959941;28;19925;-83
2023/02/14 10:24:13;;;;;;;;;;;;;;;13.44;nan;103787.75;4958036;28;20675;-84
2023/02/14 10:26:40;;;;;;;;;;;;;;;13.49;nan;103788.84;4958122;28;19930;-84
2023/02/14 10:29:07;;;;;;;;;;;;;;;13.56;nan;103789.72;4960703;28;20044;-84
2023/02/14 10:31:33;;;;;;;;;;;;;;;13.60;nan;103790.19;4957098;28;20087;-83
2023/02/14 10:34:04;;;;;;;;;;;;;;;13.61;nan;103789.16;4960205;28;21082;-84
2023/02/14 10:36:35;;;;;;;;;;;;;;;13.65;nan;103789.63;4959670;28;20272;-84
2023/02/14 10:39:09;;;;;;;;;;;;;;;13.66;nan;103792.13;4958588;28;21161;-84
2023/02/14 10:41:48;;;;;;;;;;;;;;;13.66;nan;103796.66;4958212;28;19926;-84
2023/02/14 10:44:32;;;;;;;;;;;;;;;13.67;nan;103788.38;4958082;28;19932;-84
2023/02/14 10:47:09;;;;;;;;;;;;;;;13.69;nan;103788.19;4964626;28;20232;-83
2023/02/14 10:49:53;;;;;;;;;;;;;;;13.69;nan;103791.72;4955006;28;19948;-83
2023/02/14 10:52:25;;;;;;;;;;;;;;;13.71;nan;103791.53;4959688;28;19926;-84
2023/02/14 10:54:54;;;;;;;;;;;;;;;13.73;nan;103784.06;4960448;28;19936;-84
2023/02/14 10:57:32;;;;;;;;;;;;;;;13.79;nan;103783.28;4955483;28;21204;-84
2023/02/14 11:00:00;;;;;;;;;;;;;;;13.85;nan;103779.81;4958278;28;19922;-84
2023/02/14 11:02:45;;;;;;;;;;;;;;;13.85;nan;103780.66;4956282;28;20016;-84
2023/02/14 11:05:22;;;;;;;;;;;;;;;13.91;nan;103781.72;4957721;28;20208;-84
2023/02/14 11:07:48;;;;;;;;;;;;;;;13.94;nan;103783.19;4962440;28;19933;-84
2023/02/14 11:10:13;;;;;;;;;;;;;;;13.98;nan;103779.88;4957780;28;20257;-83
2023/02/14 11:12:40;;;;;;;;;;;;;;;13.98;nan;103779.88;4958156;28;19926;-83
2023/02/14 11:15:14;;;;;;;;;;;;;;;14.00;nan;103777.81;4962482;28;19928;-84
2023/02/14 11:17:41;;;;;;;;;;;;;;;14.01;nan;103771.44;4961832;28;20174;-83
2023/02/14 11:20:18;;;;;;;;;;;;;;;14.03;nan;103773.94;4963083;28;20015;-84
2023/02/14 11:22:47;;;;;;;;;;;;;;;14.01;nan;103765.22;4960892;28;19957;-83
2023/02/14 11:25:20;;;;;;;;;;;;;;;14.00;nan;103766.22;4962725;28;20466;-84
2023/02/14 11:27:49;;;;;;;;;;;;;;;14.05;nan;103770.00;4943420;28;20485;-84
2023/02/14 11:30:23;;;;;;;;;;;;;;;14.01;nan;103757.13;4965662;28;20395;-83
2023/02/14 11:32:53;;;;;;;;;;;;;;;13.97;nan;103762.06;4967738;28;20414;-84
2023/02/14 11:35:23;;;;;;;;;;;;;;;13.98;nan;103760.19;4958027;28;19926;-84
2023/02/14 11:37:49;;;;;;;;;;;;;;;13.99;nan;103762.69;4961405;28;19973;-84
2023/02/14 11:40:35;;;;;;;;;;;;;;;14.00;nan;103750.88;4967200;28;19922;-84
2023/02/14 11:43:09;;;;;;;;;;;;;;;14.02;nan;103748.84;4958511;28;20028;-84
2023/02/14 11:45:36;;;;;;;;;;;;;;;14.04;nan;103749.47;4961779;28;19981;-84
2023/02/14 11:48:22;;;;;;;;;;;;;;;14.06;nan;103744.72;4963417;28;20647;-84
2023/02/14 11:51:00;;;;;;;;;;;;;;;14.06;nan;103739.31;4962698;28;19934;-84
2023/02/14 11:53:30;;;;;;;;;;;;;;;14.12;nan;103738.50;4963161;28;20055;-84
2023/02/14 11:55:57;;;;;;;;;;;;;;;14.19;nan;103733.19;4960455;28;19921;-84
2023/02/14 11:58:33;;;;;;;;;;;;;;;14.22;nan;103727.38;4958500;28;19930;-84
2023/02/14 12:00:59;;;;;;;;;;;;;;;14.20;nan;103730.28;4962634;28;20447;-84
2023/02/14 12:03:26;;;;;;;;;;;;;;;14.20;nan;103724.03;4961346;28;20575;-83
2023/02/14 12:05:56;;;;;;;;;;;;;;;14.21;nan;103726.53;4962577;28;21094;-83
2023/02/14 12:08:40;;;;;;;;;;;;;;;14.27;nan;103724.91;4968794;28;19922;-84
2023/02/14 12:11:19;;;;;;;;;;;;;;;14.30;nan;103720.97;4959697;28;19925;-84
2023/02/14 12:13:55;;;;;;;;;;;;;;;14.34;nan;103717.66;4958888;28;19930;-84
2023/02/14 12:16:40;;;;;;;;;;;;;;;14.37;nan;103708.34;4959896;28;19926;-84
2023/02/14 12:19:15;;;;;;;;;;;;;;;14.41;nan;103707.75;4962046;28;20013;-84
2023/02/14 12:21:50;;;;;;;;;;;;;;;14.44;nan;103706.53;4965043;28;19933;-83
2023/02/14 12:24:26;;;;;;;;;;;;;;;14.48;nan;103711.31;4960200;28;19947;-84
2023/02/14 12:27:10;;;;;;;;;;;;;;;14.42;nan;103701.31;4959086;28;20148;-85
2023/02/14 12:29:43;;;;;;;;;;;;;;;14.37;nan;103702.97;4961345;28;20156;-84
2023/02/14 12:32:15;;;;;;;;;;;;;;;14.34;nan;103704.16;4950510;28;19933;-84
2023/02/14 12:34:41;;;;;;;;;;;;;;;14.34;nan;103700.66;4959447;28;19934;-84
2023/02/14 12:37:16;;;;;;;;;;;;;;;14.36;nan;103701.28;4956961;28;20251;-84
2023/02/14 12:39:48;;;;;;;;;;;;;;;14.29;nan;103705.81;4961584;28;20388;-84
2023/02/14 12:42:13;;;;;;;;;;;;;;;14.16;nan;103695.78;4959412;28;19933;-84
2023/02/14 12:44:41;;;;;;;;;;;;;;;14.09;nan;103694.94;4959801;28;19925;-85
2023/02/14 12:47:20;;;;;;;;;;;;;;;14.04;nan;103692.84;4959063;28;20028;-84
2023/02/14 12:49:48;;;;;;;;;;;;;;;14.03;nan;103685.81;4958195;28;19933;-85
2023/02/14 12:52:23;;;;;;;;;;;;;;;14.08;nan;103685.19;4960588;28;19922;-84
2023/02/14 12:54:48;;;;;;;;;;;;;;;14.16;nan;103693.09;4960673;28;19933;-84
2023/02/14 12:57:24;;;;;;;;;;;;;;;14.25;nan;103691.91;4954825;28;21312;-85
2023/02/14 13:00:08;;;;;;;;;;;;;;;14.31;nan;103674.09;4964582;28;19960;-85
2023/02/14 13:02:41;;;;;;;;;;;;;;;14.36;nan;103677.00;4960932;28;19960;-85
2023/02/14 13:05:39;;;;;;;;;;;;;;;14.48;nan;103667.31;4960437;28;19971;-84
2023/02/14 13:08:19;;;;;;;;;;;;;;;14.46;nan;103666.69;4935483;28;19929;-84
2023/02/14 13:10:52;;;;;;;;;;;;;;;14.48;nan;103667.31;4958883;28;19929;-84
2023/02/14 13:13:36;;;;;;;;;;;;;;;14.55;nan;103657.41;4958385;28;19953;-84
2023/02/14 13:16:05;;;;;;;;;;;;;;;14.48;nan;103657.38;4962596;28;20020;-84
2023/02/14 13:18:52;;;;;;;;;;;;;;;14.50;nan;103649.06;4955925;28;21123;-85
2023/02/14 13:21:26;;;;;;;;;;;;;;;14.69;nan;103653.66;4962223;28;19926;-84
2023/02/14 13:23:57;;;;;;;;;;;;;;;14.90;nan;103654.53;4961792;28;19992;-85